sensor_id;sensor_type;location;lat;lon;timestamp;temperature;humidity
69084;SHT31;56185;48.526;9.044;2023-04-03T00:01:01;5.63;70.37
69084;SHT31;56185;48.526;9.044;2023-04-03T00:03:28;5.58;70.27
69084;SHT31;56185;48.526;9.044;2023-04-03T00:05:53;5.54;70.00
69084;SHT31;56185;48.526;9.044;2023-04-03T00:08:19;5.49;70.18
69084;SHT31;56185;48.526;9.044;2023-04-03T00:10:44;5.32;70.53
69084;SHT31;56185;48.526;9.044;2023-04-03T00:13:09;5.20;70.74
69084;SHT31;56185;48.526;9.044;2023-04-03T00:15:36;5.25;71.06
69084;SHT31;56185;48.526;9.044;2023-04-03T00:18:02;5.30;70.56
69084;SHT31;56185;48.526;9.044;2023-04-03T00:20:27;5.31;70.52
69084;SHT31;56185;48.526;9.044;2023-04-03T00:22:53;5.31;70.25
69084;SHT31;56185;48.526;9.044;2023-04-03T00:25:19;5.30;70.15
69084;SHT31;56185;48.526;9.044;2023-04-03T00:27:44;5.32;71.23
69084;SHT31;56185;48.526;9.044;2023-04-03T00:30:12;5.36;70.48
69084;SHT31;56185;48.526;9.044;2023-04-03T00:32:37;5.32;70.12
69084;SHT31;56185;48.526;9.044;2023-04-03T00:35:03;5.27;70.08
69084;SHT31;56185;48.526;9.044;2023-04-03T00:37:28;5.38;69.84
69084;SHT31;56185;48.526;9.044;2023-04-03T00:39:53;5.42;69.93
69084;SHT31;56185;48.526;9.044;2023-04-03T00:42:19;5.46;69.88
69084;SHT31;56185;48.526;9.044;2023-04-03T00:47:12;5.46;68.99
69084;SHT31;56185;48.526;9.044;2023-04-03T00:49:39;5.44;69.07
69084;SHT31;56185;48.526;9.044;2023-04-03T00:52:09;5.46;69.12
69084;SHT31;56185;48.526;9.044;2023-04-03T00:54:37;5.44;69.07
69084;SHT31;56185;48.526;9.044;2023-04-03T00:57:02;5.44;69.11
69084;SHT31;56185;48.526;9.044;2023-04-03T00:59:33;5.35;69.91
69084;SHT31;56185;48.526;9.044;2023-04-03T01:01:59;5.39;69.24
69084;SHT31;56185;48.526;9.044;2023-04-03T01:04:38;5.38;69.27
69084;SHT31;56185;48.526;9.044;2023-04-03T01:07:06;5.34;69.19
69084;SHT31;56185;48.526;9.044;2023-04-03T01:09:33;5.34;69.08
69084;SHT31;56185;48.526;9.044;2023-04-03T01:12:25;5.25;69.19
69084;SHT31;56185;48.526;9.044;2023-04-03T01:14:55;5.17;69.78
69084;SHT31;56185;48.526;9.044;2023-04-03T01:17:46;5.23;69.15
69084;SHT31;56185;48.526;9.044;2023-04-03T01:25:36;5.07;69.09
69084;SHT31;56185;48.526;9.044;2023-04-03T01:28:04;5.08;69.50
69084;SHT31;56185;48.526;9.044;2023-04-03T01:30:33;5.10;69.18
69084;SHT31;56185;48.526;9.044;2023-04-03T01:32:59;5.05;69.33
69084;SHT31;56185;48.526;9.044;2023-04-03T01:35:24;5.07;69.39
69084;SHT31;56185;48.526;9.044;2023-04-03T01:37:49;4.86;69.61
69084;SHT31;56185;48.526;9.044;2023-04-03T01:40:15;4.91;69.96
69084;SHT31;56185;48.526;9.044;2023-04-03T01:42:40;5.00;69.77
69084;SHT31;56185;48.526;9.044;2023-04-03T01:45:06;4.98;70.36
69084;SHT31;56185;48.526;9.044;2023-04-03T01:47:31;5.04;69.94
69084;SHT31;56185;48.526;9.044;2023-04-03T01:49:56;5.08;69.20
69084;SHT31;56185;48.526;9.044;2023-04-03T01:52:21;5.05;69.73
69084;SHT31;56185;48.526;9.044;2023-04-03T01:54:47;5.11;69.51
69084;SHT31;56185;48.526;9.044;2023-04-03T01:57:12;5.10;69.02
69084;SHT31;56185;48.526;9.044;2023-04-03T01:59:37;5.10;69.18
69084;SHT31;56185;48.526;9.044;2023-04-03T02:02:03;5.13;68.99
69084;SHT31;56185;48.526;9.044;2023-04-03T02:04:28;4.88;69.67
69084;SHT31;56185;48.526;9.044;2023-04-03T02:06:53;4.81;70.24
69084;SHT31;56185;48.526;9.044;2023-04-03T02:09:18;4.73;69.63
69084;SHT31;56185;48.526;9.044;2023-04-03T02:11:43;4.80;69.76
69084;SHT31;56185;48.526;9.044;2023-04-03T02:14:09;4.74;70.25
69084;SHT31;56185;48.526;9.044;2023-04-03T02:16:34;4.72;69.61
69084;SHT31;56185;48.526;9.044;2023-04-03T02:18:59;4.74;69.54
69084;SHT31;56185;48.526;9.044;2023-04-03T02:21:24;4.83;69.53
69084;SHT31;56185;48.526;9.044;2023-04-03T02:23:50;4.81;69.61
69084;SHT31;56185;48.526;9.044;2023-04-03T02:26:16;4.81;70.29
69084;SHT31;56185;48.526;9.044;2023-04-03T02:28:41;4.81;69.28
69084;SHT31;56185;48.526;9.044;2023-04-03T02:31:07;4.83;69.21
69084;SHT31;56185;48.526;9.044;2023-04-03T02:33:34;4.76;70.11
69084;SHT31;56185;48.526;9.044;2023-04-03T02:35:59;4.79;69.02
69084;SHT31;56185;48.526;9.044;2023-04-03T02:38:25;4.79;69.02
69084;SHT31;56185;48.526;9.044;2023-04-03T02:40:51;4.66;69.09
69084;SHT31;56185;48.526;9.044;2023-04-03T02:43:16;4.73;68.49
69084;SHT31;56185;48.526;9.044;2023-04-03T02:45:42;4.69;69.09
69084;SHT31;56185;48.526;9.044;2023-04-03T02:48:07;4.76;68.99
69084;SHT31;56185;48.526;9.044;2023-04-03T02:50:32;4.69;68.38
69084;SHT31;56185;48.526;9.044;2023-04-03T02:52:57;4.59;68.07
69084;SHT31;56185;48.526;9.044;2023-04-03T02:55:23;4.57;68.16
69084;SHT31;56185;48.526;9.044;2023-04-03T02:57:48;4.56;67.78
69084;SHT31;56185;48.526;9.044;2023-04-03T03:00:14;4.53;69.85
69084;SHT31;56185;48.526;9.044;2023-04-03T03:02:39;4.59;68.24
69084;SHT31;56185;48.526;9.044;2023-04-03T03:05:04;4.45;68.92
69084;SHT31;56185;48.526;9.044;2023-04-03T03:07:30;4.44;68.60
69084;SHT31;56185;48.526;9.044;2023-04-03T03:09:55;4.52;68.77
69084;SHT31;56185;48.526;9.044;2023-04-03T03:12:20;4.52;69.16
69084;SHT31;56185;48.526;9.044;2023-04-03T03:14:45;4.49;69.02
69084;SHT31;56185;48.526;9.044;2023-04-03T03:17:11;4.48;68.56
69084;SHT31;56185;48.526;9.044;2023-04-03T03:19:36;4.56;69.01
69084;SHT31;56185;48.526;9.044;2023-04-03T03:22:01;4.57;68.39
69084;SHT31;56185;48.526;9.044;2023-04-03T03:24:26;4.56;68.40
69084;SHT31;56185;48.526;9.044;2023-04-03T03:26:52;4.60;68.66
69084;SHT31;56185;48.526;9.044;2023-04-03T03:29:17;4.49;69.48
69084;SHT31;56185;48.526;9.044;2023-04-03T03:31:42;4.45;69.84
69084;SHT31;56185;48.526;9.044;2023-04-03T03:34:07;4.45;68.93
69084;SHT31;56185;48.526;9.044;2023-04-03T03:36:32;4.52;69.69
69084;SHT31;56185;48.526;9.044;2023-04-03T03:38:58;4.49;69.16
69084;SHT31;56185;48.526;9.044;2023-04-03T03:41:23;4.36;69.81
69084;SHT31;56185;48.526;9.044;2023-04-03T03:43:48;4.38;69.66
69084;SHT31;56185;48.526;9.044;2023-04-03T03:46:13;4.45;68.71
69084;SHT31;56185;48.526;9.044;2023-04-03T03:48:39;4.35;68.59
69084;SHT31;56185;48.526;9.044;2023-04-03T03:51:04;4.39;69.59
69084;SHT31;56185;48.526;9.044;2023-04-03T03:53:29;4.39;69.06
69084;SHT31;56185;48.526;9.044;2023-04-03T03:55:54;4.41;68.80
69084;SHT31;56185;48.526;9.044;2023-04-03T03:58:20;4.41;70.26
69084;SHT31;56185;48.526;9.044;2023-04-03T04:00:45;4.38;68.69
69084;SHT31;56185;48.526;9.044;2023-04-03T04:03:10;4.36;68.76
69084;SHT31;56185;48.526;9.044;2023-04-03T04:05:35;4.42;69.01
69084;SHT31;56185;48.526;9.044;2023-04-03T04:08:01;4.45;69.78
69084;SHT31;56185;48.526;9.044;2023-04-03T04:10:26;4.38;68.97
69084;SHT31;56185;48.526;9.044;2023-04-03T04:12:51;4.31;69.40
69084;SHT31;56185;48.526;9.044;2023-04-03T04:15:16;4.34;69.20
69084;SHT31;56185;48.526;9.044;2023-04-03T04:17:42;4.38;69.36
69084;SHT31;56185;48.526;9.044;2023-04-03T04:20:07;4.41;68.59
69084;SHT31;56185;48.526;9.044;2023-04-03T04:22:32;4.42;69.11
69084;SHT31;56185;48.526;9.044;2023-04-03T04:24:57;4.29;69.61
69084;SHT31;56185;48.526;9.044;2023-04-03T04:27:23;4.39;68.90
69084;SHT31;56185;48.526;9.044;2023-04-03T04:29:48;4.42;68.84
69084;SHT31;56185;48.526;9.044;2023-04-03T04:32:13;4.48;68.38
69084;SHT31;56185;48.526;9.044;2023-04-03T04:34:38;4.42;68.78
69084;SHT31;56185;48.526;9.044;2023-04-03T04:37:04;4.44;69.48
69084;SHT31;56185;48.526;9.044;2023-04-03T04:39:29;4.46;69.01
69084;SHT31;56185;48.526;9.044;2023-04-03T04:41:54;4.44;69.05
69084;SHT31;56185;48.526;9.044;2023-04-03T04:44:19;4.38;69.54
69084;SHT31;56185;48.526;9.044;2023-04-03T04:46:45;4.55;69.22
69084;SHT31;56185;48.526;9.044;2023-04-03T04:49:10;4.52;68.65
69084;SHT31;56185;48.526;9.044;2023-04-03T04:51:35;4.52;68.79
69084;SHT31;56185;48.526;9.044;2023-04-03T04:54:01;4.42;69.04
69084;SHT31;56185;48.526;9.044;2023-04-03T04:56:26;4.50;69.24
69084;SHT31;56185;48.526;9.044;2023-04-03T04:58:51;4.50;68.38
69084;SHT31;56185;48.526;9.044;2023-04-03T05:01:16;4.50;68.54
69084;SHT31;56185;48.526;9.044;2023-04-03T05:03:42;4.50;69.10
69084;SHT31;56185;48.526;9.044;2023-04-03T05:06:07;4.46;68.39
69084;SHT31;56185;48.526;9.044;2023-04-03T05:08:32;4.53;67.96
69084;SHT31;56185;48.526;9.044;2023-04-03T05:10:58;4.48;68.06
69084;SHT31;56185;48.526;9.044;2023-04-03T05:13:23;4.56;68.15
69084;SHT31;56185;48.526;9.044;2023-04-03T05:15:48;4.46;67.34
69084;SHT31;56185;48.526;9.044;2023-04-03T05:18:13;4.56;67.70
69084;SHT31;56185;48.526;9.044;2023-04-03T05:20:39;4.59;67.73
69084;SHT31;56185;48.526;9.044;2023-04-03T05:23:04;4.56;67.79
69084;SHT31;56185;48.526;9.044;2023-04-03T05:25:30;4.35;66.81
69084;SHT31;56185;48.526;9.044;2023-04-03T05:27:55;4.57;67.75
69084;SHT31;56185;48.526;9.044;2023-04-03T05:30:20;4.57;66.33
69084;SHT31;56185;48.526;9.044;2023-04-03T05:32:46;4.52;66.66
69084;SHT31;56185;48.526;9.044;2023-04-03T05:35:11;4.35;64.67
69084;SHT31;56185;48.526;9.044;2023-04-03T05:37:37;4.34;64.88
69084;SHT31;56185;48.526;9.044;2023-04-03T05:40:04;4.38;65.63
69084;SHT31;56185;48.526;9.044;2023-04-03T05:42:29;4.39;65.91
69084;SHT31;56185;48.526;9.044;2023-04-03T05:44:55;4.42;64.98
69084;SHT31;56185;48.526;9.044;2023-04-03T05:47:20;4.42;64.78
69084;SHT31;56185;48.526;9.044;2023-04-03T05:49:45;4.49;64.92
69084;SHT31;56185;48.526;9.044;2023-04-03T05:52:29;4.52;64.05
69084;SHT31;56185;48.526;9.044;2023-04-03T05:54:54;4.48;65.36
69084;SHT31;56185;48.526;9.044;2023-04-03T05:57:20;4.56;64.73
69084;SHT31;56185;48.526;9.044;2023-04-03T05:59:46;4.59;63.68
69084;SHT31;56185;48.526;9.044;2023-04-03T06:02:13;4.60;63.40
69084;SHT31;56185;48.526;9.044;2023-04-03T06:04:39;4.46;63.51
69084;SHT31;56185;48.526;9.044;2023-04-03T06:07:04;4.56;64.56
69084;SHT31;56185;48.526;9.044;2023-04-03T06:09:30;4.53;63.30
69084;SHT31;56185;48.526;9.044;2023-04-03T06:11:56;4.55;63.91
69084;SHT31;56185;48.526;9.044;2023-04-03T06:14:21;4.66;63.33
69084;SHT31;56185;48.526;9.044;2023-04-03T06:16:46;4.66;62.99
69084;SHT31;56185;48.526;9.044;2023-04-03T06:19:12;4.69;62.60
69084;SHT31;56185;48.526;9.044;2023-04-03T06:21:38;4.73;61.68
69084;SHT31;56185;48.526;9.044;2023-04-03T06:24:04;4.76;63.69
69084;SHT31;56185;48.526;9.044;2023-04-03T06:26:30;4.76;61.50
69084;SHT31;56185;48.526;9.044;2023-04-03T06:28:55;4.57;60.24
69084;SHT31;56185;48.526;9.044;2023-04-03T06:31:20;4.59;61.38
69084;SHT31;56185;48.526;9.044;2023-04-03T06:33:46;4.67;61.36
69084;SHT31;56185;48.526;9.044;2023-04-03T06:36:11;4.81;60.72
69084;SHT31;56185;48.526;9.044;2023-04-03T06:38:37;4.81;60.28
69084;SHT31;56185;48.526;9.044;2023-04-03T06:41:02;4.59;60.61
69084;SHT31;56185;48.526;9.044;2023-04-03T06:43:27;4.69;61.94
69084;SHT31;56185;48.526;9.044;2023-04-03T06:45:52;4.74;62.41
69084;SHT31;56185;48.526;9.044;2023-04-03T06:48:18;4.74;62.95
69084;SHT31;56185;48.526;9.044;2023-04-03T06:50:43;4.86;61.81
69084;SHT31;56185;48.526;9.044;2023-04-03T06:53:09;4.86;61.47
69084;SHT31;56185;48.526;9.044;2023-04-03T06:55:35;4.83;62.35
69084;SHT31;56185;48.526;9.044;2023-04-03T06:58:00;4.84;62.12
69084;SHT31;56185;48.526;9.044;2023-04-03T07:00:25;4.87;63.04
69084;SHT31;56185;48.526;9.044;2023-04-03T07:02:50;4.98;62.28
69084;SHT31;56185;48.526;9.044;2023-04-03T07:05:16;4.96;62.63
69084;SHT31;56185;48.526;9.044;2023-04-03T07:07:41;4.93;61.90
69084;SHT31;56185;48.526;9.044;2023-04-03T07:10:07;4.96;62.93
69084;SHT31;56185;48.526;9.044;2023-04-03T07:12:33;4.97;62.03
69084;SHT31;56185;48.526;9.044;2023-04-03T07:14:58;4.88;62.46
69084;SHT31;56185;48.526;9.044;2023-04-03T07:17:23;5.00;62.98
69084;SHT31;56185;48.526;9.044;2023-04-03T07:19:49;5.00;62.56
69084;SHT31;56185;48.526;9.044;2023-04-03T07:22:14;5.01;62.43
69084;SHT31;56185;48.526;9.044;2023-04-03T07:24:39;5.13;61.52
69084;SHT31;56185;48.526;9.044;2023-04-03T07:27:04;5.15;62.30
69084;SHT31;56185;48.526;9.044;2023-04-03T07:29:30;5.18;62.19
69084;SHT31;56185;48.526;9.044;2023-04-03T07:31:55;5.15;60.86
69084;SHT31;56185;48.526;9.044;2023-04-03T07:34:20;5.24;61.81
69084;SHT31;56185;48.526;9.044;2023-04-03T07:36:46;5.25;62.00
69084;SHT31;56185;48.526;9.044;2023-04-03T07:39:11;5.35;60.76
69084;SHT31;56185;48.526;9.044;2023-04-03T07:41:36;5.36;59.73
69084;SHT31;56185;48.526;9.044;2023-04-03T07:44:02;5.25;59.74
69084;SHT31;56185;48.526;9.044;2023-04-03T07:46:27;5.52;59.98
69084;SHT31;56185;48.526;9.044;2023-04-03T07:48:52;5.54;59.79
69084;SHT31;56185;48.526;9.044;2023-04-03T07:51:17;5.67;59.94
69084;SHT31;56185;48.526;9.044;2023-04-03T07:53:43;5.70;59.24
69084;SHT31;56185;48.526;9.044;2023-04-03T07:56:08;5.79;60.20
69084;SHT31;56185;48.526;9.044;2023-04-03T07:58:33;5.79;59.15
69084;SHT31;56185;48.526;9.044;2023-04-03T08:00:59;5.82;59.74
69084;SHT31;56185;48.526;9.044;2023-04-03T08:03:24;5.90;58.33
69084;SHT31;56185;48.526;9.044;2023-04-03T08:05:50;5.96;58.52
69084;SHT31;56185;48.526;9.044;2023-04-03T08:08:18;6.03;58.93
69084;SHT31;56185;48.526;9.044;2023-04-03T08:10:43;6.04;60.46
69084;SHT31;56185;48.526;9.044;2023-04-03T08:13:12;6.10;59.98
69084;SHT31;56185;48.526;9.044;2023-04-03T08:15:40;6.09;60.44
69084;SHT31;56185;48.526;9.044;2023-04-03T08:18:05;6.07;59.61
69084;SHT31;56185;48.526;9.044;2023-04-03T08:20:31;6.17;61.09
69084;SHT31;56185;48.526;9.044;2023-04-03T08:22:56;6.07;60.88
69084;SHT31;56185;48.526;9.044;2023-04-03T08:25:21;6.16;60.37
69084;SHT31;56185;48.526;9.044;2023-04-03T08:27:47;6.18;60.46
69084;SHT31;56185;48.526;9.044;2023-04-03T08:30:13;6.06;60.37
69084;SHT31;56185;48.526;9.044;2023-04-03T08:32:38;6.09;60.41
69084;SHT31;56185;48.526;9.044;2023-04-03T08:35:04;6.21;60.17
69084;SHT31;56185;48.526;9.044;2023-04-03T08:37:30;6.25;60.25
69084;SHT31;56185;48.526;9.044;2023-04-03T08:39:55;6.21;59.91
69084;SHT31;56185;48.526;9.044;2023-04-03T08:42:41;6.27;59.68
69084;SHT31;56185;48.526;9.044;2023-04-03T08:47:57;6.37;58.73
69084;SHT31;56185;48.526;9.044;2023-04-03T08:50:30;6.21;59.51
69084;SHT31;56185;48.526;9.044;2023-04-03T08:52:57;6.38;59.31
69084;SHT31;56185;48.526;9.044;2023-04-03T08:55:27;6.38;59.25
69084;SHT31;56185;48.526;9.044;2023-04-03T09:00:55;6.30;59.87
69084;SHT31;56185;48.526;9.044;2023-04-03T09:03:22;6.44;58.78
69084;SHT31;56185;48.526;9.044;2023-04-03T09:06:07;6.55;59.11
69084;SHT31;56185;48.526;9.044;2023-04-03T09:11:36;6.62;59.29
69084;SHT31;56185;48.526;9.044;2023-04-03T09:16:54;6.68;58.57
69084;SHT31;56185;48.526;9.044;2023-04-03T09:22:20;6.74;57.75
69084;SHT31;56185;48.526;9.044;2023-04-03T09:24:47;6.85;58.10
69084;SHT31;56185;48.526;9.044;2023-04-03T09:27:13;6.92;57.76
69084;SHT31;56185;48.526;9.044;2023-04-03T09:29:41;7.02;56.26
69084;SHT31;56185;48.526;9.044;2023-04-03T09:34:47;7.23;56.59
69084;SHT31;56185;48.526;9.044;2023-04-03T09:37:37;7.34;56.64
69084;SHT31;56185;48.526;9.044;2023-04-03T09:40:03;7.38;55.67
69084;SHT31;56185;48.526;9.044;2023-04-03T09:42:30;7.38;54.96
69084;SHT31;56185;48.526;9.044;2023-04-03T09:44:59;7.43;55.40
69084;SHT31;56185;48.526;9.044;2023-04-03T09:47:25;7.44;55.36
69084;SHT31;56185;48.526;9.044;2023-04-03T09:50:28;7.17;56.17
69084;SHT31;56185;48.526;9.044;2023-04-03T09:52:53;7.31;55.86
69084;SHT31;56185;48.526;9.044;2023-04-03T09:55:24;7.20;55.25
69084;SHT31;56185;48.526;9.044;2023-04-03T09:57:49;7.12;55.20
69084;SHT31;56185;48.526;9.044;2023-04-03T10:00:25;7.23;55.59
69084;SHT31;56185;48.526;9.044;2023-04-03T10:02:53;7.34;56.21
69084;SHT31;56185;48.526;9.044;2023-04-03T10:10:43;7.30;55.26
69084;SHT31;56185;48.526;9.044;2023-04-03T10:13:12;7.37;55.08
69084;SHT31;56185;48.526;9.044;2023-04-03T10:15:46;7.40;56.11
69084;SHT31;56185;48.526;9.044;2023-04-03T10:20:49;7.31;54.70
69084;SHT31;56185;48.526;9.044;2023-04-03T10:23:32;7.28;53.85
69084;SHT31;56185;48.526;9.044;2023-04-03T10:26:32;7.37;54.12
69084;SHT31;56185;48.526;9.044;2023-04-03T10:43:42;7.63;52.07
69084;SHT31;56185;48.526;9.044;2023-04-03T10:47:02;7.50;51.43
69084;SHT31;56185;48.526;9.044;2023-04-03T10:49:29;7.78;51.92
69084;SHT31;56185;48.526;9.044;2023-04-03T10:54:39;7.79;50.49
69084;SHT31;56185;48.526;9.044;2023-04-03T10:57:10;7.70;49.51
69084;SHT31;56185;48.526;9.044;2023-04-03T10:59:40;7.63;50.99
69084;SHT31;56185;48.526;9.044;2023-04-03T11:03:01;7.48;50.24
69084;SHT31;56185;48.526;9.044;2023-04-03T11:05:35;7.57;51.17
69084;SHT31;56185;48.526;9.044;2023-04-03T11:11:03;7.44;50.94
69084;SHT31;56185;48.526;9.044;2023-04-03T11:13:43;7.53;51.13
69084;SHT31;56185;48.526;9.044;2023-04-03T11:16:23;7.35;49.58
69084;SHT31;56185;48.526;9.044;2023-04-03T11:18:56;7.40;51.62
69084;SHT31;56185;48.526;9.044;2023-04-03T11:21:33;7.63;51.31
69084;SHT31;56185;48.526;9.044;2023-04-03T11:24:02;7.55;49.66
69084;SHT31;56185;48.526;9.044;2023-04-03T11:26:36;7.74;49.98
69084;SHT31;56185;48.526;9.044;2023-04-03T11:29:13;7.71;50.27
69084;SHT31;56185;48.526;9.044;2023-04-03T11:34:44;8.01;49.48
69084;SHT31;56185;48.526;9.044;2023-04-03T11:42:41;7.65;48.21
69084;SHT31;56185;48.526;9.044;2023-04-03T11:47:56;7.78;49.94
69084;SHT31;56185;48.526;9.044;2023-04-03T11:55:53;7.65;48.70
69084;SHT31;56185;48.526;9.044;2023-04-03T12:05:29;7.70;48.26
69084;SHT31;56185;48.526;9.044;2023-04-03T12:11:21;7.78;50.17
69084;SHT31;56185;48.526;9.044;2023-04-03T12:16:42;7.86;50.86
69084;SHT31;56185;48.526;9.044;2023-04-03T12:22:38;8.07;48.93
69084;SHT31;56185;48.526;9.044;2023-04-03T12:28:17;8.09;48.69
69084;SHT31;56185;48.526;9.044;2023-04-03T12:30:51;8.03;49.49
69084;SHT31;56185;48.526;9.044;2023-04-03T12:43:05;8.02;47.90
69084;SHT31;56185;48.526;9.044;2023-04-03T12:48:47;8.07;48.17
69084;SHT31;56185;48.526;9.044;2023-04-03T12:51:42;7.96;47.68
69084;SHT31;56185;48.526;9.044;2023-04-03T12:54:23;7.92;49.75
69084;SHT31;56185;48.526;9.044;2023-04-03T12:57:19;8.02;48.19
69084;SHT31;56185;48.526;9.044;2023-04-03T13:00:13;8.03;47.81
69084;SHT31;56185;48.526;9.044;2023-04-03T13:02:57;8.09;48.48
69084;SHT31;56185;48.526;9.044;2023-04-03T13:05:30;8.02;47.23
69084;SHT31;56185;48.526;9.044;2023-04-03T13:08:27;8.07;47.55
69084;SHT31;56185;48.526;9.044;2023-04-03T13:14:16;7.91;47.33
69084;SHT31;56185;48.526;9.044;2023-04-03T13:16:52;7.99;48.43
69084;SHT31;56185;48.526;9.044;2023-04-03T13:19:23;8.06;47.57
69084;SHT31;56185;48.526;9.044;2023-04-03T13:21:49;8.15;48.51
69084;SHT31;56185;48.526;9.044;2023-04-03T13:24:15;8.30;47.81
69084;SHT31;56185;48.526;9.044;2023-04-03T13:26:40;8.30;48.39
69084;SHT31;56185;48.526;9.044;2023-04-03T13:29:14;8.29;47.98
69084;SHT31;56185;48.526;9.044;2023-04-03T13:31:41;8.26;47.72
69084;SHT31;56185;48.526;9.044;2023-04-03T13:34:12;8.30;48.29
69084;SHT31;56185;48.526;9.044;2023-04-03T13:36:41;8.25;47.22
69084;SHT31;56185;48.526;9.044;2023-04-03T13:41:40;8.28;47.82
69084;SHT31;56185;48.526;9.044;2023-04-03T13:46:44;8.29;46.43
69084;SHT31;56185;48.526;9.044;2023-04-03T13:49:21;8.06;48.64
69084;SHT31;56185;48.526;9.044;2023-04-03T13:51:48;8.15;47.91
69084;SHT31;56185;48.526;9.044;2023-04-03T13:54:32;8.21;47.07
69084;SHT31;56185;48.526;9.044;2023-04-03T13:57:02;8.23;48.41
69084;SHT31;56185;48.526;9.044;2023-04-03T13:59:34;8.23;47.18
69084;SHT31;56185;48.526;9.044;2023-04-03T14:04:44;8.15;46.73
69084;SHT31;56185;48.526;9.044;2023-04-03T14:07:11;8.17;47.65
69084;SHT31;56185;48.526;9.044;2023-04-03T14:09:37;8.28;46.85
69084;SHT31;56185;48.526;9.044;2023-04-03T14:12:07;8.19;46.61
69084;SHT31;56185;48.526;9.044;2023-04-03T14:14:36;8.25;46.75
69084;SHT31;56185;48.526;9.044;2023-04-03T14:17:14;8.13;46.89
69084;SHT31;56185;48.526;9.044;2023-04-03T14:19:39;8.28;48.29
69084;SHT31;56185;48.526;9.044;2023-04-03T14:22:20;8.28;47.46
69084;SHT31;56185;48.526;9.044;2023-04-03T14:24:46;8.28;46.94
69084;SHT31;56185;48.526;9.044;2023-04-03T14:27:25;8.15;46.75
69084;SHT31;56185;48.526;9.044;2023-04-03T14:29:52;8.23;47.11
69084;SHT31;56185;48.526;9.044;2023-04-03T14:32:22;8.32;48.04
69084;SHT31;56185;48.526;9.044;2023-04-03T14:34:51;8.16;47.03
69084;SHT31;56185;48.526;9.044;2023-04-03T14:37:22;8.32;47.40
69084;SHT31;56185;48.526;9.044;2023-04-03T14:39:51;8.28;46.58
69084;SHT31;56185;48.526;9.044;2023-04-03T14:42:20;8.22;45.15
69084;SHT31;56185;48.526;9.044;2023-04-03T14:44:46;8.29;45.90
69084;SHT31;56185;48.526;9.044;2023-04-03T14:47:35;8.23;47.39
69084;SHT31;56185;48.526;9.044;2023-04-03T14:50:07;8.25;46.35
69084;SHT31;56185;48.526;9.044;2023-04-03T14:52:35;8.12;46.39
69084;SHT31;56185;48.526;9.044;2023-04-03T14:55:02;8.09;47.49
69084;SHT31;56185;48.526;9.044;2023-04-03T14:57:29;8.10;47.86
69084;SHT31;56185;48.526;9.044;2023-04-03T14:59:55;8.23;46.47
69084;SHT31;56185;48.526;9.044;2023-04-03T15:04:45;7.96;46.50
69084;SHT31;56185;48.526;9.044;2023-04-03T15:07:10;7.95;45.40
69084;SHT31;56185;48.526;9.044;2023-04-03T15:09:38;7.89;46.42
69084;SHT31;56185;48.526;9.044;2023-04-03T15:12:03;7.85;46.91
69084;SHT31;56185;48.526;9.044;2023-04-03T15:14:29;7.88;46.96
69084;SHT31;56185;48.526;9.044;2023-04-03T15:16:57;7.96;48.13
69084;SHT31;56185;48.526;9.044;2023-04-03T15:19:23;7.88;45.75
69084;SHT31;56185;48.526;9.044;2023-04-03T15:21:51;7.86;46.35
69084;SHT31;56185;48.526;9.044;2023-04-03T15:24:16;7.82;46.68
69084;SHT31;56185;48.526;9.044;2023-04-03T15:26:42;7.75;45.11
69084;SHT31;56185;48.526;9.044;2023-04-03T15:29:07;7.78;46.44
69084;SHT31;56185;48.526;9.044;2023-04-03T15:31:32;7.85;45.57
69084;SHT31;56185;48.526;9.044;2023-04-03T15:33:58;7.91;46.23
69084;SHT31;56185;48.526;9.044;2023-04-03T15:36:23;7.89;45.84
69084;SHT31;56185;48.526;9.044;2023-04-03T15:38:48;8.05;44.87
69084;SHT31;56185;48.526;9.044;2023-04-03T15:41:14;7.99;44.85
69084;SHT31;56185;48.526;9.044;2023-04-03T15:43:39;8.12;45.08
69084;SHT31;56185;48.526;9.044;2023-04-03T15:46:04;7.98;44.24
69084;SHT31;56185;48.526;9.044;2023-04-03T15:48:30;8.07;45.40
69084;SHT31;56185;48.526;9.044;2023-04-03T15:50:56;8.07;44.90
69084;SHT31;56185;48.526;9.044;2023-04-03T15:53:21;7.98;45.84
69084;SHT31;56185;48.526;9.044;2023-04-03T15:55:46;7.89;45.52
69084;SHT31;56185;48.526;9.044;2023-04-03T15:58:12;7.86;46.43
69084;SHT31;56185;48.526;9.044;2023-04-03T16:00:37;7.86;47.23
69084;SHT31;56185;48.526;9.044;2023-04-03T16:03:12;7.88;46.33
69084;SHT31;56185;48.526;9.044;2023-04-03T16:05:39;7.95;47.30
69084;SHT31;56185;48.526;9.044;2023-04-03T16:08:05;7.82;45.77
69084;SHT31;56185;48.526;9.044;2023-04-03T16:10:30;7.77;45.63
69084;SHT31;56185;48.526;9.044;2023-04-03T16:12:56;7.72;44.72
69084;SHT31;56185;48.526;9.044;2023-04-03T16:15:21;7.48;46.03
69084;SHT31;56185;48.526;9.044;2023-04-03T16:17:47;7.58;45.65
69084;SHT31;56185;48.526;9.044;2023-04-03T16:20:13;7.61;47.47
69084;SHT31;56185;48.526;9.044;2023-04-03T16:22:38;7.65;46.14
69084;SHT31;56185;48.526;9.044;2023-04-03T16:25:06;7.65;46.37
69084;SHT31;56185;48.526;9.044;2023-04-03T16:27:31;7.61;45.55
69084;SHT31;56185;48.526;9.044;2023-04-03T16:29:57;7.64;45.60
69084;SHT31;56185;48.526;9.044;2023-04-03T16:32:23;7.65;46.36
69084;SHT31;56185;48.526;9.044;2023-04-03T16:34:49;7.65;44.45
69084;SHT31;56185;48.526;9.044;2023-04-03T16:37:15;7.67;45.06
69084;SHT31;56185;48.526;9.044;2023-04-03T16:39:41;7.60;44.71
69084;SHT31;56185;48.526;9.044;2023-04-03T16:42:07;7.61;44.59
69084;SHT31;56185;48.526;9.044;2023-04-03T16:44:32;7.67;45.08
69084;SHT31;56185;48.526;9.044;2023-04-03T16:46:57;7.51;45.03
69084;SHT31;56185;48.526;9.044;2023-04-03T16:49:22;7.54;45.52
69084;SHT31;56185;48.526;9.044;2023-04-03T16:51:50;7.53;45.51
69084;SHT31;56185;48.526;9.044;2023-04-03T16:54:15;7.58;45.56
69084;SHT31;56185;48.526;9.044;2023-04-03T16:56:40;7.58;45.09
69084;SHT31;56185;48.526;9.044;2023-04-03T16:59:06;7.53;45.17
69084;SHT31;56185;48.526;9.044;2023-04-03T17:01:31;7.47;46.04
69084;SHT31;56185;48.526;9.044;2023-04-03T17:03:59;7.46;45.98
69084;SHT31;56185;48.526;9.044;2023-04-03T17:06:24;7.41;45.91
69084;SHT31;56185;48.526;9.044;2023-04-03T17:08:51;7.37;46.52
69084;SHT31;56185;48.526;9.044;2023-04-03T17:11:17;7.30;46.64
69084;SHT31;56185;48.526;9.044;2023-04-03T17:13:43;7.27;47.54
69084;SHT31;56185;48.526;9.044;2023-04-03T17:16:11;7.23;45.66
69084;SHT31;56185;48.526;9.044;2023-04-03T17:18:37;7.20;47.38
69084;SHT31;56185;48.526;9.044;2023-04-03T17:21:03;7.16;46.36
69084;SHT31;56185;48.526;9.044;2023-04-03T17:23:29;7.20;46.44
69084;SHT31;56185;48.526;9.044;2023-04-03T17:25:54;7.12;46.81
69084;SHT31;56185;48.526;9.044;2023-04-03T17:28:21;7.07;47.64
69084;SHT31;56185;48.526;9.044;2023-04-03T17:30:49;7.09;47.22
69084;SHT31;56185;48.526;9.044;2023-04-03T17:33:14;7.14;46.56
69084;SHT31;56185;48.526;9.044;2023-04-03T17:35:39;7.07;46.85
69084;SHT31;56185;48.526;9.044;2023-04-03T17:38:05;6.99;47.29
69084;SHT31;56185;48.526;9.044;2023-04-03T17:40:30;7.03;46.55
69084;SHT31;56185;48.526;9.044;2023-04-03T17:42:55;6.96;47.18
69084;SHT31;56185;48.526;9.044;2023-04-03T17:45:20;6.89;47.65